Time;durP1;ratioP1;P1;durP2;ratioP2;P2;SDS_P1;SDS_P2;PMS_P1;PMS_P2;Temp;Humidity;BMP_temperature;BMP_pressure;BME280_temperature;BME280_humidity;BME280_pressure;Samples;Min_cycle;Max_cycle;Signal;HPM_P1;HPM_P2
2019/09/10 00:00:20;;;;;;;11.3;7.7;;;;;;;6.03;100;95206.39;;;;
2019/09/10 00:01:28;;;;;;;11.3;7.7;;;;;;;6.03;100;95206.39;;;;
2019/09/10 00:02:30;;;;;;;11.3;7.7;;;;;;;6.03;100;95206.39;;;;
2019/09/10 00:03:31;;;;;;;11.3;7.7;;;;;;;6.03;100;95206.39;;;;
2019/09/10 00:04:32;;;;;;;11.3;7.7;;;;;;;6.03;100;95206.39;;;;
2019/09/10 00:05:34;;;;;;;10.45;8.950001;;;;;;;6.11;100;95190.6;;;;
2019/09/10 00:06:36;;;;;;;10.45;8.950001;;;;;;;6.11;100;95190.6;;;;
2019/09/10 00:07:37;;;;;;;10.45;8.950001;;;;;;;6.11;100;95190.6;;;;
2019/09/10 00:08:39;;;;;;;10.45;8.950001;;;;;;;6.11;100;95190.6;;;;
2019/09/10 00:09:40;;;;;;;10.45;8.950001;;;;;;;6.11;100;95190.6;;;;
2019/09/10 00:10:41;;;;;;;10.45;8.950001;;;;;;;6.11;100;95190.6;;;;
2019/09/10 00:11:43;;;;;;;10.45;8.950001;;;;;;;6.11;100;95190.6;;;;
2019/09/10 00:12:44;;;;;;;10.45;8.950001;;;;;;;6.11;100;95190.6;;;;
2019/09/10 00:13:45;;;;;;;10.45;8.950001;;;;;;;6.11;100;95190.6;;;;
2019/09/10 00:14:47;;;;;;;10.45;8.950001;;;;;;;6.11;100;95190.6;;;;
2019/09/10 00:15:48;;;;;;;11;9.65;;;;;;;6.36;100;95208.98;;;;
2019/09/10 00:16:50;;;;;;;11;9.65;;;;;;;6.36;100;95208.98;;;;
2019/09/10 00:17:51;;;;;;;11;9.65;;;;;;;6.36;100;95208.98;;;;
2019/09/10 00:18:52;;;;;;;11;9.65;;;;;;;6.36;100;95208.98;;;;
2019/09/10 00:19:54;;;;;;;11;9.65;;;;;;;6.36;100;95208.98;;;;
2019/09/10 00:20:55;;;;;;;11;9.65;;;;;;;6.36;100;95208.98;;;;
2019/09/10 00:21:56;;;;;;;11;9.65;;;;;;;6.36;100;95208.98;;;;
2019/09/10 00:22:57;;;;;;;11;9.65;;;;;;;6.36;100;95208.98;;;;
2019/09/10 00:23:59;;;;;;;11;9.65;;;;;;;6.36;100;95208.98;;;;
2019/09/10 00:25:00;;;;;;;11;9.65;;;;;;;6.36;100;95208.98;;;;
2019/09/10 00:26:06;;;;;;;11.35;9.799999;;;;;;;6.5;100;95202.94;;;;
2019/09/10 00:27:07;;;;;;;11.35;9.799999;;;;;;;6.5;100;95202.94;;;;
2019/09/10 00:28:08;;;;;;;11.35;9.799999;;;;;;;6.5;100;95202.94;;;;
2019/09/10 00:29:10;;;;;;;11.35;9.799999;;;;;;;6.5;100;95202.94;;;;
2019/09/10 00:30:11;;;;;;;11.35;9.799999;;;;;;;6.5;100;95202.94;;;;
2019/09/10 00:31:12;;;;;;;11.35;9.799999;;;;;;;6.5;100;95202.94;;;;
2019/09/10 00:32:14;;;;;;;11.35;9.799999;;;;;;;6.5;100;95202.94;;;;
2019/09/10 00:33:15;;;;;;;11.35;9.799999;;;;;;;6.5;100;95202.94;;;;
2019/09/10 00:34:16;;;;;;;11.35;9.799999;;;;;;;6.5;100;95202.94;;;;
2019/09/10 00:35:17;;;;;;;11.35;9.799999;;;;;;;6.5;100;95202.94;;;;
2019/09/10 00:36:20;;;;;;;11.35;9.799999;;;;;;;6.5;100;95202.94;;;;
2019/09/10 00:37:21;;;;;;;9.200002;8.299998;;;;;;;6.58;100;95192.91;;;;
2019/09/10 00:38:22;;;;;;;9.200002;8.299998;;;;;;;6.58;100;95192.91;;;;
2019/09/10 00:39:23;;;;;;;9.200002;8.299998;;;;;;;6.58;100;95192.91;;;;
2019/09/10 00:40:25;;;;;;;9.200002;8.299998;;;;;;;6.58;100;95192.91;;;;
2019/09/10 00:41:26;;;;;;;9.200002;8.299998;;;;;;;6.58;100;95192.91;;;;
2019/09/10 00:42:27;;;;;;;9.200002;8.299998;;;;;;;6.58;100;95192.91;;;;
2019/09/10 00:43:29;;;;;;;9.200002;8.299998;;;;;;;6.58;100;95192.91;;;;
2019/09/10 00:44:30;;;;;;;9.200002;8.299998;;;;;;;6.58;100;95192.91;;;;
2019/09/10 00:45:31;;;;;;;9.200002;8.299998;;;;;;;6.58;100;95192.91;;;;
2019/09/10 00:46:35;;;;;;;9.200002;8.299998;;;;;;;6.58;100;95192.91;;;;
2019/09/10 00:47:36;;;;;;;7.5;6.7;;;;;;;6.49;100;95185.22;;;;
2019/09/10 00:48:37;;;;;;;7.5;6.7;;;;;;;6.49;100;95185.22;;;;
2019/09/10 00:49:38;;;;;;;7.5;6.7;;;;;;;6.49;100;95185.22;;;;
2019/09/10 00:50:39;;;;;;;7.5;6.7;;;;;;;6.49;100;95185.22;;;;
2019/09/10 00:51:42;;;;;;;7.5;6.7;;;;;;;6.49;100;95185.22;;;;
2019/09/10 00:52:44;;;;;;;7.5;6.7;;;;;;;6.49;100;95185.22;;;;
2019/09/10 00:53:45;;;;;;;7.5;6.7;;;;;;;6.49;100;95185.22;;;;
2019/09/10 00:54:46;;;;;;;7.5;6.7;;;;;;;6.49;100;95185.22;;;;
2019/09/10 00:55:47;;;;;;;7.5;6.7;;;;;;;6.49;100;95185.22;;;;
2019/09/10 00:56:48;;;;;;;7.5;6.7;;;;;;;6.49;100;95185.22;;;;
2019/09/10 00:57:49;;;;;;;7.5;6.7;;;;;;;6.49;100;95185.22;;;;
2019/09/10 00:58:50;;;;;;;8.199999;7.4;;;;;;;6.47;100;95188.2;;;;
2019/09/10 00:59:52;;;;;;;8.199999;7.4;;;;;;;6.47;100;95188.2;;;;
2019/09/10 01:00:53;;;;;;;8.199999;7.4;;;;;;;6.47;100;95188.2;;;;
2019/09/10 01:01:54;;;;;;;8.199999;7.4;;;;;;;6.47;100;95188.2;;;;
2019/09/10 01:02:55;;;;;;;8.199999;7.4;;;;;;;6.47;100;95188.2;;;;
2019/09/10 01:03:57;;;;;;;8.199999;7.4;;;;;;;6.47;100;95188.2;;;;
2019/09/10 01:04:58;;;;;;;8.199999;7.4;;;;;;;6.47;100;95188.2;;;;
2019/09/10 01:05:59;;;;;;;8.199999;7.4;;;;;;;6.47;100;95188.2;;;;
2019/09/10 01:07:00;;;;;;;8.199999;7.4;;;;;;;6.47;100;95188.2;;;;
2019/09/10 01:08:02;;;;;;;8.199999;7.4;;;;;;;6.47;100;95188.2;;;;
2019/09/10 01:09:04;;;;;;;8.399999;7.450001;;;;;;;6.43;100;95185.64;;;;
2019/09/10 01:10:06;;;;;;;8.399999;7.450001;;;;;;;6.43;100;95185.64;;;;
2019/09/10 01:11:08;;;;;;;8.399999;7.450001;;;;;;;6.43;100;95185.64;;;;
2019/09/10 01:12:09;;;;;;;8.399999;7.450001;;;;;;;6.43;100;95185.64;;;;
2019/09/10 01:13:11;;;;;;;8.399999;7.450001;;;;;;;6.43;100;95185.64;;;;
2019/09/10 01:14:12;;;;;;;8.399999;7.450001;;;;;;;6.43;100;95185.64;;;;
2019/09/10 01:15:13;;;;;;;8.399999;7.450001;;;;;;;6.43;100;95185.64;;;;
2019/09/10 01:16:17;;;;;;;8.399999;7.450001;;;;;;;6.43;100;95185.64;;;;
2019/09/10 01:17:18;;;;;;;8.399999;7.450001;;;;;;;6.43;100;95185.64;;;;
2019/09/10 01:18:19;;;;;;;8.399999;7.450001;;;;;;;6.43;100;95185.64;;;;
2019/09/10 01:19:21;;;;;;;7.800001;7;;;;;;;6.48;100;95177.35;;;;
2019/09/10 01:20:22;;;;;;;7.800001;7;;;;;;;6.48;100;95177.35;;;;
2019/09/10 01:21:24;;;;;;;7.800001;7;;;;;;;6.48;100;95177.35;;;;
2019/09/10 01:22:29;;;;;;;7.800001;7;;;;;;;6.48;100;95177.35;;;;
2019/09/10 01:23:30;;;;;;;7.800001;7;;;;;;;6.48;100;95177.35;;;;
2019/09/10 01:24:32;;;;;;;7.800001;7;;;;;;;6.48;100;95177.35;;;;
2019/09/10 01:25:33;;;;;;;7.800001;7;;;;;;;6.48;100;95177.35;;;;
2019/09/10 01:26:34;;;;;;;7.800001;7;;;;;;;6.48;100;95177.35;;;;
2019/09/10 01:27:35;;;;;;;7.800001;7;;;;;;;6.48;100;95177.35;;;;
2019/09/10 01:28:37;;;;;;;7.800001;7;;;;;;;6.48;100;95177.35;;;;
2019/09/10 01:29:38;;;;;;;7.800001;7;;;;;;;6.48;100;95177.35;;;;
2019/09/10 01:30:40;;;;;;;8;7.2;;;;;;;6.43;100;95178.1;;;;
2019/09/10 01:33:43;;;;;;;8;7.2;;;;;;;6.43;100;95178.1;;;;
2019/09/10 01:34:45;;;;;;;8;7.2;;;;;;;6.43;100;95178.1;;;;
2019/09/10 01:35:46;;;;;;;8;7.2;;;;;;;6.43;100;95178.1;;;;
2019/09/10 01:36:47;;;;;;;8;7.2;;;;;;;6.43;100;95178.1;;;;
2019/09/10 01:37:48;;;;;;;8;7.2;;;;;;;6.43;100;95178.1;;;;
2019/09/10 01:38:50;;;;;;;8;7.2;;;;;;;6.43;100;95178.1;;;;
2019/09/10 01:39:51;;;;;;;8;7.2;;;;;;;6.43;100;95178.1;;;;
2019/09/10 01:40:52;;;;;;;7.199999;6.25;;;;;;;6.39;100;95183.99;;;;
2019/09/10 01:41:53;;;;;;;7.199999;6.25;;;;;;;6.39;100;95183.99;;;;
2019/09/10 01:42:55;;;;;;;7.199999;6.25;;;;;;;6.39;100;95183.99;;;;
2019/09/10 01:43:56;;;;;;;7.199999;6.25;;;;;;;6.39;100;95183.99;;;;
2019/09/10 01:44:57;;;;;;;7.199999;6.25;;;;;;;6.39;100;95183.99;;;;
2019/09/10 01:45:58;;;;;;;7.199999;6.25;;;;;;;6.39;100;95183.99;;;;
2019/09/10 01:46:59;;;;;;;7.199999;6.25;;;;;;;6.39;100;95183.99;;;;
2019/09/10 01:48:00;;;;;;;7.199999;6.25;;;;;;;6.39;100;95183.99;;;;
2019/09/10 01:49:02;;;;;;;7.199999;6.25;;;;;;;6.39;100;95183.99;;;;
2019/09/10 01:50:03;;;;;;;7.199999;6.25;;;;;;;6.39;100;95183.99;;;;
2019/09/10 01:51:06;;;;;;;7.05;5.7;;;;;;;6.21;100;95198.5;;;;
2019/09/10 01:52:07;;;;;;;7.05;5.7;;;;;;;6.21;100;95198.5;;;;
2019/09/10 01:53:08;;;;;;;7.05;5.7;;;;;;;6.21;100;95198.5;;;;
2019/09/10 01:54:09;;;;;;;7.05;5.7;;;;;;;6.21;100;95198.5;;;;
2019/09/10 01:55:11;;;;;;;7.05;5.7;;;;;;;6.21;100;95198.5;;;;
2019/09/10 01:56:12;;;;;;;7.05;5.7;;;;;;;6.21;100;95198.5;;;;
2019/09/10 01:57:14;;;;;;;7.05;5.7;;;;;;;6.21;100;95198.5;;;;
2019/09/10 01:58:15;;;;;;;7.05;5.7;;;;;;;6.21;100;95198.5;;;;
2019/09/10 01:59:16;;;;;;;7.05;5.7;;;;;;;6.21;100;95198.5;;;;
2019/09/10 02:00:18;;;;;;;7.05;5.7;;;;;;;6.21;100;95198.5;;;;
2019/09/10 02:01:21;;;;;;;7.05;5.7;;;;;;;6.21;100;95198.5;;;;
2019/09/10 02:02:23;;;;;;;7.5;6.349999;;;;;;;6.11;100;95193.28;;;;
2019/09/10 02:03:24;;;;;;;7.5;6.349999;;;;;;;6.11;100;95193.28;;;;
2019/09/10 02:04:25;;;;;;;7.5;6.349999;;;;;;;6.11;100;95193.28;;;;
2019/09/10 02:05:27;;;;;;;7.5;6.349999;;;;;;;6.11;100;95193.28;;;;
2019/09/10 02:06:30;;;;;;;7.5;6.349999;;;;;;;6.11;100;95193.28;;;;
2019/09/10 02:07:31;;;;;;;7.5;6.349999;;;;;;;6.11;100;95193.28;;;;
2019/09/10 02:08:32;;;;;;;7.5;6.349999;;;;;;;6.11;100;95193.28;;;;
2019/09/10 02:09:34;;;;;;;7.5;6.349999;;;;;;;6.11;100;95193.28;;;;
2019/09/10 02:10:35;;;;;;;7.5;6.349999;;;;;;;6.11;100;95193.28;;;;
2019/09/10 02:11:36;;;;;;;7.5;6.349999;;;;;;;6.11;100;95193.28;;;;
2019/09/10 02:12:38;;;;;;;7;6.299999;;;;;;;5.95;100;95190.14;;;;
2019/09/10 02:13:39;;;;;;;7;6.299999;;;;;;;5.95;100;95190.14;;;;
2019/09/10 02:14:40;;;;;;;7;6.299999;;;;;;;5.95;100;95190.14;;;;
2019/09/10 02:15:41;;;;;;;7;6.299999;;;;;;;5.95;100;95190.14;;;;
2019/09/10 02:16:43;;;;;;;7;6.299999;;;;;;;5.95;100;95190.14;;;;
2019/09/10 02:17:44;;;;;;;7;6.299999;;;;;;;5.95;100;95190.14;;;;
2019/09/10 02:18:46;;;;;;;7;6.299999;;;;;;;5.95;100;95190.14;;;;
2019/09/10 02:19:47;;;;;;;7;6.299999;;;;;;;5.95;100;95190.14;;;;
2019/09/10 02:20:48;;;;;;;7;6.299999;;;;;;;5.95;100;95190.14;;;;
2019/09/10 02:21:49;;;;;;;7;6.299999;;;;;;;5.95;100;95190.14;;;;
2019/09/10 02:22:50;;;;;;;7.4;6.599999;;;;;;;5.92;100;95182.9;;;;
2019/09/10 02:23:52;;;;;;;7.4;6.599999;;;;;;;5.92;100;95182.9;;;;
2019/09/10 02:24:53;;;;;;;7.4;6.599999;;;;;;;5.92;100;95182.9;;;;
2019/09/10 02:25:54;;;;;;;7.4;6.599999;;;;;;;5.92;100;95182.9;;;;
2019/09/10 02:26:55;;;;;;;7.4;6.599999;;;;;;;5.92;100;95182.9;;;;
2019/09/10 02:27:57;;;;;;;7.4;6.599999;;;;;;;5.92;100;95182.9;;;;
2019/09/10 02:28:58;;;;;;;7.4;6.599999;;;;;;;5.92;100;95182.9;;;;
2019/09/10 02:29:59;;;;;;;7.4;6.599999;;;;;;;5.92;100;95182.9;;;;
2019/09/10 02:31:00;;;;;;;7.4;6.599999;;;;;;;5.92;100;95182.9;;;;
2019/09/10 02:32:01;;;;;;;7.4;6.599999;;;;;;;5.92;100;95182.9;;;;
2019/09/10 02:33:03;;;;;;;7.4;6.599999;;;;;;;5.92;100;95182.9;;;;
2019/09/10 02:34:04;;;;;;;7.099999;5.700001;;;;;;;5.88;100;95183.97;;;;
2019/09/10 02:35:05;;;;;;;7.099999;5.700001;;;;;;;5.88;100;95183.97;;;;
2019/09/10 02:36:07;;;;;;;7.099999;5.700001;;;;;;;5.88;100;95183.97;;;;
2019/09/10 02:37:08;;;;;;;7.099999;5.700001;;;;;;;5.88;100;95183.97;;;;
2019/09/10 02:38:10;;;;;;;7.099999;5.700001;;;;;;;5.88;100;95183.97;;;;
2019/09/10 02:39:11;;;;;;;7.099999;5.700001;;;;;;;5.88;100;95183.97;;;;
2019/09/10 02:40:14;;;;;;;7.099999;5.700001;;;;;;;5.88;100;95183.97;;;;
2019/09/10 02:43:15;;;;;;;7.099999;5.700001;;;;;;;5.88;100;95183.97;;;;
2019/09/10 02:44:17;;;;;;;7.8;5.65;;;;;;;5.87;100;95176.03;;;;
2019/09/10 02:45:18;;;;;;;7.8;5.65;;;;;;;5.87;100;95176.03;;;;
2019/09/10 02:46:20;;;;;;;7.8;5.65;;;;;;;5.87;100;95176.03;;;;
2019/09/10 02:47:21;;;;;;;7.8;5.65;;;;;;;5.87;100;95176.03;;;;
2019/09/10 02:48:22;;;;;;;7.8;5.65;;;;;;;5.87;100;95176.03;;;;
2019/09/10 02:49:23;;;;;;;7.8;5.65;;;;;;;5.87;100;95176.03;;;;
2019/09/10 02:50:24;;;;;;;7.8;5.65;;;;;;;5.87;100;95176.03;;;;
2019/09/10 02:51:28;;;;;;;7.8;5.65;;;;;;;5.87;100;95176.03;;;;
2019/09/10 02:52:29;;;;;;;7.8;5.65;;;;;;;5.87;100;95176.03;;;;
2019/09/10 02:53:30;;;;;;;7.8;5.65;;;;;;;5.87;100;95176.03;;;;
2019/09/10 02:54:31;;;;;;;7.8;5.65;;;;;;;5.87;100;95176.03;;;;
2019/09/10 02:55:33;;;;;;;6.1;5.5;;;;;;;5.78;100;95180.85;;;;
2019/09/10 02:56:38;;;;;;;6.1;5.5;;;;;;;5.78;100;95180.85;;;;
2019/09/10 02:57:39;;;;;;;6.1;5.5;;;;;;;5.78;100;95180.85;;;;
2019/09/10 02:58:40;;;;;;;6.1;5.5;;;;;;;5.78;100;95180.85;;;;
2019/09/10 02:59:41;;;;;;;6.1;5.5;;;;;;;5.78;100;95180.85;;;;
2019/09/10 03:00:42;;;;;;;6.1;5.5;;;;;;;5.78;100;95180.85;;;;
2019/09/10 03:01:45;;;;;;;6.1;5.5;;;;;;;5.78;100;95180.85;;;;
2019/09/10 03:02:46;;;;;;;6.1;5.5;;;;;;;5.78;100;95180.85;;;;
2019/09/10 03:03:48;;;;;;;6.1;5.5;;;;;;;5.78;100;95180.85;;;;
2019/09/10 03:04:49;;;;;;;6.1;5.5;;;;;;;5.78;100;95180.85;;;;
2019/09/10 03:05:50;;;;;;;6.2;5.299999;;;;;;;5.71;100;95183.64;;;;
2019/09/10 03:06:51;;;;;;;6.2;5.299999;;;;;;;5.71;100;95183.64;;;;
2019/09/10 03:07:52;;;;;;;6.2;5.299999;;;;;;;5.71;100;95183.64;;;;
2019/09/10 03:08:53;;;;;;;6.2;5.299999;;;;;;;5.71;100;95183.64;;;;
2019/09/10 03:09:54;;;;;;;6.2;5.299999;;;;;;;5.71;100;95183.64;;;;
2019/09/10 03:10:56;;;;;;;6.2;5.299999;;;;;;;5.71;100;95183.64;;;;
2019/09/10 03:11:57;;;;;;;6.2;5.299999;;;;;;;5.71;100;95183.64;;;;
2019/09/10 03:12:58;;;;;;;6.2;5.299999;;;;;;;5.71;100;95183.64;;;;
2019/09/10 03:13:59;;;;;;;6.2;5.299999;;;;;;;5.71;100;95183.64;;;;
2019/09/10 03:15:00;;;;;;;6.2;5.299999;;;;;;;5.71;100;95183.64;;;;
2019/09/10 03:16:02;;;;;;;5.9;5.1;;;;;;;5.55;100;95176.04;;;;
2019/09/10 03:17:03;;;;;;;5.9;5.1;;;;;;;5.55;100;95176.04;;;;
2019/09/10 03:18:04;;;;;;;5.9;5.1;;;;;;;5.55;100;95176.04;;;;
2019/09/10 03:19:06;;;;;;;5.9;5.1;;;;;;;5.55;100;95176.04;;;;
2019/09/10 03:20:07;;;;;;;5.9;5.1;;;;;;;5.55;100;95176.04;;;;
2019/09/10 03:21:09;;;;;;;5.9;5.1;;;;;;;5.55;100;95176.04;;;;
2019/09/10 03:22:10;;;;;;;5.9;5.1;;;;;;;5.55;100;95176.04;;;;
2019/09/10 03:23:11;;;;;;;5.9;5.1;;;;;;;5.55;100;95176.04;;;;
2019/09/10 03:24:13;;;;;;;5.9;5.1;;;;;;;5.55;100;95176.04;;;;
2019/09/10 03:25:14;;;;;;;5.9;5.1;;;;;;;5.55;100;95176.04;;;;
2019/09/10 03:26:16;;;;;;;5.9;5.1;;;;;;;5.55;100;95176.04;;;;
2019/09/10 03:27:17;;;;;;;5.650001;5.15;;;;;;;5.47;100;95181.09;;;;
2019/09/10 03:28:18;;;;;;;5.650001;5.15;;;;;;;5.47;100;95181.09;;;;
2019/09/10 03:29:19;;;;;;;5.650001;5.15;;;;;;;5.47;100;95181.09;;;;
2019/09/10 03:30:20;;;;;;;5.650001;5.15;;;;;;;5.47;100;95181.09;;;;
2019/09/10 03:31:24;;;;;;;5.650001;5.15;;;;;;;5.47;100;95181.09;;;;
2019/09/10 03:32:25;;;;;;;5.650001;5.15;;;;;;;5.47;100;95181.09;;;;
2019/09/10 03:33:27;;;;;;;5.650001;5.15;;;;;;;5.47;100;95181.09;;;;
2019/09/10 03:34:28;;;;;;;5.650001;5.15;;;;;;;5.47;100;95181.09;;;;
2019/09/10 03:35:29;;;;;;;5.650001;5.15;;;;;;;5.47;100;95181.09;;;;
2019/09/10 03:36:31;;;;;;;5.650001;5.15;;;;;;;5.47;100;95181.09;;;;
2019/09/10 03:37:32;;;;;;;5;4.5;;;;;;;5.3;100;95179.38;;;;
2019/09/10 03:38:33;;;;;;;5;4.5;;;;;;;5.3;100;95179.38;;;;
2019/09/10 03:39:34;;;;;;;5;4.5;;;;;;;5.3;100;95179.38;;;;
2019/09/10 03:40:35;;;;;;;5;4.5;;;;;;;5.3;100;95179.38;;;;
2019/09/10 03:41:38;;;;;;;5;4.5;;;;;;;5.3;100;95179.38;;;;
2019/09/10 03:42:39;;;;;;;5;4.5;;;;;;;5.3;100;95179.38;;;;
2019/09/10 03:43:40;;;;;;;5;4.5;;;;;;;5.3;100;95179.38;;;;
2019/09/10 03:44:41;;;;;;;5;4.5;;;;;;;5.3;100;95179.38;;;;
2019/09/10 03:45:42;;;;;;;5;4.5;;;;;;;5.3;100;95179.38;;;;
2019/09/10 03:46:44;;;;;;;5;4.5;;;;;;;5.3;100;95179.38;;;;
2019/09/10 03:47:45;;;;;;;5.950001;5.35;;;;;;;5.22;100;95181.41;;;;
2019/09/10 03:48:46;;;;;;;5.950001;5.35;;;;;;;5.22;100;95181.41;;;;
2019/09/10 03:49:48;;;;;;;5.950001;5.35;;;;;;;5.22;100;95181.41;;;;
2019/09/10 03:50:49;;;;;;;5.950001;5.35;;;;;;;5.22;100;95181.41;;;;
2019/09/10 03:51:50;;;;;;;5.950001;5.35;;;;;;;5.22;100;95181.41;;;;
2019/09/10 03:52:51;;;;;;;5.950001;5.35;;;;;;;5.22;100;95181.41;;;;
2019/09/10 03:53:52;;;;;;;5.950001;5.35;;;;;;;5.22;100;95181.41;;;;
2019/09/10 03:54:53;;;;;;;5.950001;5.35;;;;;;;5.22;100;95181.41;;;;
2019/09/10 03:55:55;;;;;;;5.950001;5.35;;;;;;;5.22;100;95181.41;;;;
2019/09/10 03:56:56;;;;;;;5.950001;5.35;;;;;;;5.22;100;95181.41;;;;
2019/09/10 03:57:57;;;;;;;5.950001;5.35;;;;;;;5.22;100;95181.41;;;;
2019/09/10 03:58:58;;;;;;;5.099999;4.6;;;;;;;5.07;100;95190.16;;;;
2019/09/10 03:59:59;;;;;;;5.099999;4.6;;;;;;;5.07;100;95190.16;;;;
2019/09/10 04:01:01;;;;;;;5.099999;4.6;;;;;;;5.07;100;95190.16;;;;
2019/09/10 04:02:03;;;;;;;5.099999;4.6;;;;;;;5.07;100;95190.16;;;;
2019/09/10 04:03:04;;;;;;;5.099999;4.6;;;;;;;5.07;100;95190.16;;;;
2019/09/10 04:04:05;;;;;;;5.099999;4.6;;;;;;;5.07;100;95190.16;;;;
2019/09/10 04:05:07;;;;;;;5.099999;4.6;;;;;;;5.07;100;95190.16;;;;
2019/09/10 04:06:08;;;;;;;5.099999;4.6;;;;;;;5.07;100;95190.16;;;;
2019/09/10 04:07:10;;;;;;;5.099999;4.6;;;;;;;5.07;100;95190.16;;;;
2019/09/10 04:08:11;;;;;;;5.099999;4.6;;;;;;;5.07;100;95190.16;;;;
2019/09/10 04:09:12;;;;;;;5.9;4.799999;;;;;;;4.99;100;95199.2;;;;
2019/09/10 04:10:13;;;;;;;5.9;4.799999;;;;;;;4.99;100;95199.2;;;;
2019/09/10 04:11:16;;;;;;;5.9;4.799999;;;;;;;4.99;100;95199.2;;;;
2019/09/10 04:12:17;;;;;;;5.9;4.799999;;;;;;;4.99;100;95199.2;;;;
2019/09/10 04:13:19;;;;;;;5.9;4.799999;;;;;;;4.99;100;95199.2;;;;
2019/09/10 04:14:20;;;;;;;5.9;4.799999;;;;;;;4.99;100;95199.2;;;;
2019/09/10 04:15:21;;;;;;;5.9;4.799999;;;;;;;4.99;100;95199.2;;;;
2019/09/10 04:16:23;;;;;;;5.9;4.799999;;;;;;;4.99;100;95199.2;;;;
2019/09/10 04:17:24;;;;;;;5.9;4.799999;;;;;;;4.99;100;95199.2;;;;
2019/09/10 04:18:25;;;;;;;5.9;4.799999;;;;;;;4.99;100;95199.2;;;;
2019/09/10 04:19:26;;;;;;;5.35;4.799999;;;;;;;4.85;100;95196.2;;;;
2019/09/10 04:20:27;;;;;;;5.35;4.799999;;;;;;;4.85;100;95196.2;;;;
2019/09/10 04:21:30;;;;;;;5.35;4.799999;;;;;;;4.85;100;95196.2;;;;
2019/09/10 04:22:31;;;;;;;5.35;4.799999;;;;;;;4.85;100;95196.2;;;;
2019/09/10 04:23:32;;;;;;;5.35;4.799999;;;;;;;4.85;100;95196.2;;;;
2019/09/10 04:24:33;;;;;;;5.35;4.799999;;;;;;;4.85;100;95196.2;;;;
2019/09/10 04:25:35;;;;;;;5.35;4.799999;;;;;;;4.85;100;95196.2;;;;
2019/09/10 04:26:36;;;;;;;5.35;4.799999;;;;;;;4.85;100;95196.2;;;;
2019/09/10 04:27:37;;;;;;;5.35;4.799999;;;;;;;4.85;100;95196.2;;;;
2019/09/10 04:28:38;;;;;;;5.35;4.799999;;;;;;;4.85;100;95196.2;;;;
2019/09/10 04:29:39;;;;;;;5.35;4.799999;;;;;;;4.85;100;95196.2;;;;
2019/09/10 04:30:41;;;;;;;7;5.750001;;;;;;;4.82;100;95206.9;;;;
2019/09/10 04:31:44;;;;;;;7;5.750001;;;;;;;4.82;100;95206.9;;;;
2019/09/10 04:32:45;;;;;;;7;5.750001;;;;;;;4.82;100;95206.9;;;;
2019/09/10 04:33:46;;;;;;;7;5.750001;;;;;;;4.82;100;95206.9;;;;
2019/09/10 04:34:48;;;;;;;7;5.750001;;;;;;;4.82;100;95206.9;;;;
2019/09/10 04:35:49;;;;;;;7;5.750001;;;;;;;4.82;100;95206.9;;;;
2019/09/10 04:36:50;;;;;;;7;5.750001;;;;;;;4.82;100;95206.9;;;;
2019/09/10 04:37:51;;;;;;;7;5.750001;;;;;;;4.82;100;95206.9;;;;
2019/09/10 04:38:52;;;;;;;7;5.750001;;;;;;;4.82;100;95206.9;;;;
2019/09/10 04:39:54;;;;;;;7;5.750001;;;;;;;4.82;100;95206.9;;;;
2019/09/10 04:40:55;;;;;;;5.349999;4.7;;;;;;;4.75;100;95206.98;;;;
2019/09/10 04:41:56;;;;;;;5.349999;4.7;;;;;;;4.75;100;95206.98;;;;
2019/09/10 04:42:57;;;;;;;5.349999;4.7;;;;;;;4.75;100;95206.98;;;;
2019/09/10 04:43:58;;;;;;;5.349999;4.7;;;;;;;4.75;100;95206.98;;;;
2019/09/10 04:44:59;;;;;;;5.349999;4.7;;;;;;;4.75;100;95206.98;;;;
2019/09/10 04:46:00;;;;;;;5.349999;4.7;;;;;;;4.75;100;95206.98;;;;
2019/09/10 04:47:02;;;;;;;5.349999;4.7;;;;;;;4.75;100;95206.98;;;;
2019/09/10 04:48:03;;;;;;;5.349999;4.7;;;;;;;4.75;100;95206.98;;;;
2019/09/10 04:49:04;;;;;;;5.349999;4.7;;;;;;;4.75;100;95206.98;;;;
2019/09/10 04:50:05;;;;;;;5.349999;4.7;;;;;;;4.75;100;95206.98;;;;
2019/09/10 04:51:07;;;;;;;5.349999;4.7;;;;;;;4.75;100;95206.98;;;;
2019/09/10 04:52:09;;;;;;;6.45;5.050001;;;;;;;4.77;100;95220.86;;;;
2019/09/10 04:53:10;;;;;;;6.45;5.050001;;;;;;;4.77;100;95220.86;;;;
2019/09/10 04:54:11;;;;;;;6.45;5.050001;;;;;;;4.77;100;95220.86;;;;
2019/09/10 04:55:12;;;;;;;6.45;5.050001;;;;;;;4.77;100;95220.86;;;;
2019/09/10 04:56:15;;;;;;;6.45;5.050001;;;;;;;4.77;100;95220.86;;;;
2019/09/10 04:57:16;;;;;;;6.45;5.050001;;;;;;;4.77;100;95220.86;;;;
2019/09/10 04:58:17;;;;;;;6.45;5.050001;;;;;;;4.77;100;95220.86;;;;
2019/09/10 04:59:18;;;;;;;6.45;5.050001;;;;;;;4.77;100;95220.86;;;;
2019/09/10 05:00:20;;;;;;;6.45;5.050001;;;;;;;4.77;100;95220.86;;;;
2019/09/10 05:01:23;;;;;;;6.45;5.050001;;;;;;;4.77;100;95220.86;;;;
2019/09/10 05:02:24;;;;;;;5.9;5.3;;;;;;;4.83;100;95234.45;;;;
2019/09/10 05:03:25;;;;;;;5.9;5.3;;;;;;;4.83;100;95234.45;;;;
2019/09/10 05:04:26;;;;;;;5.9;5.3;;;;;;;4.83;100;95234.45;;;;
2019/09/10 05:05:27;;;;;;;5.9;5.3;;;;;;;4.83;100;95234.45;;;;
2019/09/10 05:06:29;;;;;;;5.9;5.3;;;;;;;4.83;100;95234.45;;;;
2019/09/10 05:07:30;;;;;;;5.9;5.3;;;;;;;4.83;100;95234.45;;;;
2019/09/10 05:08:32;;;;;;;5.9;5.3;;;;;;;4.83;100;95234.45;;;;
2019/09/10 05:09:33;;;;;;;5.9;5.3;;;;;;;4.83;100;95234.45;;;;
2019/09/10 05:10:34;;;;;;;5.9;5.3;;;;;;;4.83;100;95234.45;;;;
2019/09/10 05:11:36;;;;;;;5.9;5.3;;;;;;;4.83;100;95234.45;;;;
2019/09/10 05:12:37;;;;;;;6.5;5.25;;;;;;;4.99;100;95250.12;;;;
2019/09/10 05:13:38;;;;;;;6.5;5.25;;;;;;;4.99;100;95250.12;;;;
2019/09/10 05:14:39;;;;;;;6.5;5.25;;;;;;;4.99;100;95250.12;;;;
2019/09/10 05:15:40;;;;;;;6.5;5.25;;;;;;;4.99;100;95250.12;;;;
2019/09/10 05:16:44;;;;;;;6.5;5.25;;;;;;;4.99;100;95250.12;;;;
2019/09/10 05:17:45;;;;;;;6.5;5.25;;;;;;;4.99;100;95250.12;;;;
2019/09/10 05:18:46;;;;;;;6.5;5.25;;;;;;;4.99;100;95250.12;;;;
2019/09/10 05:19:47;;;;;;;6.5;5.25;;;;;;;4.99;100;95250.12;;;;
2019/09/10 05:20:48;;;;;;;6.5;5.25;;;;;;;4.99;100;95250.12;;;;
2019/09/10 05:21:49;;;;;;;6.5;5.25;;;;;;;4.99;100;95250.12;;;;
2019/09/10 05:22:50;;;;;;;6.5;5.25;;;;;;;4.99;100;95250.12;;;;
2019/09/10 05:23:51;;;;;;;5.95;4.15;;;;;;;5.19;100;95251.83;;;;
2019/09/10 05:24:53;;;;;;;5.95;4.15;;;;;;;5.19;100;95251.83;;;;
2019/09/10 05:25:54;;;;;;;5.95;4.15;;;;;;;5.19;100;95251.83;;;;
2019/09/10 05:26:55;;;;;;;5.95;4.15;;;;;;;5.19;100;95251.83;;;;
2019/09/10 05:27:56;;;;;;;5.95;4.15;;;;;;;5.19;100;95251.83;;;;
2019/09/10 05:28:57;;;;;;;5.95;4.15;;;;;;;5.19;100;95251.83;;;;
2019/09/10 05:29:58;;;;;;;5.95;4.15;;;;;;;5.19;100;95251.83;;;;
2019/09/10 05:31:00;;;;;;;5.95;4.15;;;;;;;5.19;100;95251.83;;;;
2019/09/10 05:32:01;;;;;;;5.95;4.15;;;;;;;5.19;100;95251.83;;;;
2019/09/10 05:33:02;;;;;;;5.95;4.15;;;;;;;5.19;100;95251.83;;;;
2019/09/10 05:34:03;;;;;;;5;4.400001;;;;;;;5.54;100;95258.64;;;;
2019/09/10 05:35:04;;;;;;;5;4.400001;;;;;;;5.54;100;95258.64;;;;
2019/09/10 05:36:06;;;;;;;5;4.400001;;;;;;;5.54;100;95258.64;;;;
2019/09/10 05:37:08;;;;;;;5;4.400001;;;;;;;5.54;100;95258.64;;;;
2019/09/10 05:38:09;;;;;;;5;4.400001;;;;;;;5.54;100;95258.64;;;;
2019/09/10 05:39:10;;;;;;;5;4.400001;;;;;;;5.54;100;95258.64;;;;
2019/09/10 05:40:11;;;;;;;5;4.400001;;;;;;;5.54;100;95258.64;;;;
2019/09/10 05:41:14;;;;;;;5;4.400001;;;;;;;5.54;100;95258.64;;;;
2019/09/10 05:42:15;;;;;;;5;4.400001;;;;;;;5.54;100;95258.64;;;;
2019/09/10 05:43:16;;;;;;;5;4.400001;;;;;;;5.54;100;95258.64;;;;
2019/09/10 05:44:17;;;;;;;5;4.400001;;;;;;;5.54;100;95258.64;;;;
2019/09/10 05:45:18;;;;;;;5.449999;4.849999;;;;;;;6.08;100;95276.26;;;;
2019/09/10 05:46:21;;;;;;;5.449999;4.849999;;;;;;;6.08;100;95276.26;;;;
2019/09/10 05:47:22;;;;;;;5.449999;4.849999;;;;;;;6.08;100;95276.26;;;;
2019/09/10 05:48:23;;;;;;;5.449999;4.849999;;;;;;;6.08;100;95276.26;;;;
2019/09/10 05:49:24;;;;;;;5.449999;4.849999;;;;;;;6.08;100;95276.26;;;;
2019/09/10 05:50:25;;;;;;;5.449999;4.849999;;;;;;;6.08;100;95276.26;;;;
2019/09/10 05:51:27;;;;;;;5.449999;4.849999;;;;;;;6.08;100;95276.26;;;;
2019/09/10 05:52:28;;;;;;;5.449999;4.849999;;;;;;;6.08;100;95276.26;;;;
2019/09/10 05:53:29;;;;;;;5.449999;4.849999;;;;;;;6.08;100;95276.26;;;;
2019/09/10 05:54:30;;;;;;;5.449999;4.849999;;;;;;;6.08;100;95276.26;;;;
2019/09/10 05:55:31;;;;;;;6.499999;5.15;;;;;;;6.94;100;95285.82;;;;
2019/09/10 05:56:33;;;;;;;6.499999;5.15;;;;;;;6.94;100;95285.82;;;;
2019/09/10 05:57:34;;;;;;;6.499999;5.15;;;;;;;6.94;100;95285.82;;;;
2019/09/10 05:58:35;;;;;;;6.499999;5.15;;;;;;;6.94;100;95285.82;;;;
2019/09/10 05:59:36;;;;;;;6.499999;5.15;;;;;;;6.94;100;95285.82;;;;
2019/09/10 06:00:37;;;;;;;6.499999;5.15;;;;;;;6.94;100;95285.82;;;;
2019/09/10 06:01:39;;;;;;;6.499999;5.15;;;;;;;6.94;100;95285.82;;;;
2019/09/10 06:02:40;;;;;;;6.499999;5.15;;;;;;;6.94;100;95285.82;;;;
2019/09/10 06:03:41;;;;;;;6.499999;5.15;;;;;;;6.94;100;95285.82;;;;
2019/09/10 06:04:42;;;;;;;6.499999;5.15;;;;;;;6.94;100;95285.82;;;;
2019/09/10 06:05:43;;;;;;;7.5;5.4;;;;;;;7.75;100;95291.22;;;;
2019/09/10 06:06:45;;;;;;;7.5;5.4;;;;;;;7.75;100;95291.22;;;;
2019/09/10 06:07:46;;;;;;;7.5;5.4;;;;;;;7.75;100;95291.22;;;;
2019/09/10 06:08:47;;;;;;;7.5;5.4;;;;;;;7.75;100;95291.22;;;;
2019/09/10 06:09:48;;;;;;;7.5;5.4;;;;;;;7.75;100;95291.22;;;;
2019/09/10 06:10:49;;;;;;;7.5;5.4;;;;;;;7.75;100;95291.22;;;;
2019/09/10 06:11:51;;;;;;;7.5;5.4;;;;;;;7.75;100;95291.22;;;;
2019/09/10 06:12:52;;;;;;;7.5;5.4;;;;;;;7.75;100;95291.22;;;;
2019/09/10 06:13:53;;;;;;;7.5;5.4;;;;;;;7.75;100;95291.22;;;;